FYRN

Rhino Camp Airport

Rhino Camp, Namibia
METAR FYRN 211500Z 27004KT 9999 FEW035CB SCT040TCU 34/14 Q1011
Observed Flight Rules
Jan-21 @ 15:00 UTC (5 hours ago) Visual Flight Rules
Wind Visibility Clouds
270° at 4 knots 10,000+ meters
  • Few at 3,500' AGL
  • Scattered at 4,000' AGL
Temperatures Readings
Current 34°C / 93°F
Dewpoint 14°C / 57°F
Humidity 30%
Altimeter 29.85" Hg
Pressure 1011 hPa
Elevation 756
METAR FYRN 211500Z 27004KT 9999 FEW035CB SCT040TCU 34/14 Q1011
Observed Flight Rules
Jan-21 @ 15:00 UTC
(5 hours ago)
VFR
Wind Visibility
270° at 4 knots 10,000+ meters
Clouds
  • Few at 3,500' AGL
  • Scattered at 4,000' AGL
Temperature Dewpoint
34°C / 93°F 14°C / 57°F
Humidity Altimeter Pressure
30% 29.85" Hg 1011 hPa